sensor_id;sensor_type;location;lat;lon;timestamp;pressure;altitude;pressure_sealevel;temperature;humidity
3796;BME280;1913;50.660;7.834;2023-03-01T00:01:20;98238.97;;;-1.85;100.00
3796;BME280;1913;50.660;7.834;2023-03-01T00:03:46;98233.59;;;-1.82;100.00
3796;BME280;1913;50.660;7.834;2023-03-01T00:06:12;98224.91;;;-1.94;100.00
3796;BME280;1913;50.660;7.834;2023-03-01T00:08:38;98229.38;;;-1.96;100.00
3796;BME280;1913;50.660;7.834;2023-03-01T00:11:16;98222.94;;;-2.03;100.00
3796;BME280;1913;50.660;7.834;2023-03-01T00:13:43;98232.84;;;-1.97;100.00
3796;BME280;1913;50.660;7.834;2023-03-01T00:16:11;98227.38;;;-2.05;100.00
3796;BME280;1913;50.660;7.834;2023-03-01T00:18:38;98228.94;;;-2.02;100.00
3796;BME280;1913;50.660;7.834;2023-03-01T00:21:04;98227.16;;;-2.02;100.00
3796;BME280;1913;50.660;7.834;2023-03-01T00:23:29;98211.72;;;-2.02;100.00
3796;BME280;1913;50.660;7.834;2023-03-01T00:25:54;98213.75;;;-2.07;100.00
3796;BME280;1913;50.660;7.834;2023-03-01T00:28:20;98214.97;;;-2.12;100.00
3796;BME280;1913;50.660;7.834;2023-03-01T00:30:46;98222.72;;;-2.12;100.00
3796;BME280;1913;50.660;7.834;2023-03-01T00:33:12;98222.78;;;-2.14;100.00
3796;BME280;1913;50.660;7.834;2023-03-01T00:35:37;98228.34;;;-2.20;100.00
3796;BME280;1913;50.660;7.834;2023-03-01T00:38:03;98225.78;;;-2.20;100.00
3796;BME280;1913;50.660;7.834;2023-03-01T00:40:31;98217.59;;;-2.27;100.00
3796;BME280;1913;50.660;7.834;2023-03-01T00:42:56;98230.66;;;-2.30;100.00
3796;BME280;1913;50.660;7.834;2023-03-01T00:45:22;98229.09;;;-2.32;100.00
3796;BME280;1913;50.660;7.834;2023-03-01T00:47:50;98230.06;;;-2.48;100.00
3796;BME280;1913;50.660;7.834;2023-03-01T00:50:16;98225.22;;;-2.52;100.00
3796;BME280;1913;50.660;7.834;2023-03-01T00:52:42;98229.13;;;-2.47;100.00
3796;BME280;1913;50.660;7.834;2023-03-01T00:55:09;98235.22;;;-2.48;100.00
3796;BME280;1913;50.660;7.834;2023-03-01T00:57:34;98235.78;;;-2.57;100.00
3796;BME280;1913;50.660;7.834;2023-03-01T01:00:00;98236.50;;;-2.55;100.00
3796;BME280;1913;50.660;7.834;2023-03-01T01:02:26;98234.41;;;-2.62;100.00
3796;BME280;1913;50.660;7.834;2023-03-01T01:04:51;98232.84;;;-2.65;100.00
3796;BME280;1913;50.660;7.834;2023-03-01T01:07:17;98232.22;;;-2.69;100.00
3796;BME280;1913;50.660;7.834;2023-03-01T01:09:43;98236.25;;;-2.65;100.00
3796;BME280;1913;50.660;7.834;2023-03-01T01:12:08;98224.75;;;-2.59;100.00
3796;BME280;1913;50.660;7.834;2023-03-01T01:14:34;98236.41;;;-2.53;100.00
3796;BME280;1913;50.660;7.834;2023-03-01T01:17:00;98223.53;;;-2.53;100.00
3796;BME280;1913;50.660;7.834;2023-03-01T01:19:26;98218.13;;;-2.49;100.00
3796;BME280;1913;50.660;7.834;2023-03-01T01:21:51;98204.50;;;-2.51;100.00
3796;BME280;1913;50.660;7.834;2023-03-01T01:24:17;98203.59;;;-2.50;100.00
3796;BME280;1913;50.660;7.834;2023-03-01T01:26:43;98194.06;;;-2.62;100.00
3796;BME280;1913;50.660;7.834;2023-03-01T01:29:09;98190.31;;;-2.71;100.00
3796;BME280;1913;50.660;7.834;2023-03-01T01:31:37;98193.81;;;-2.72;100.00
3796;BME280;1913;50.660;7.834;2023-03-01T01:34:04;98191.78;;;-2.67;100.00
3796;BME280;1913;50.660;7.834;2023-03-01T01:36:32;98191.69;;;-2.65;100.00
3796;BME280;1913;50.660;7.834;2023-03-01T01:38:58;98189.47;;;-2.71;100.00
3796;BME280;1913;50.660;7.834;2023-03-01T01:41:25;98186.66;;;-2.81;100.00
3796;BME280;1913;50.660;7.834;2023-03-01T01:46:39;98178.84;;;-2.79;100.00
3796;BME280;1913;50.660;7.834;2023-03-01T01:49:26;98184.44;;;-2.73;100.00
3796;BME280;1913;50.660;7.834;2023-03-01T01:52:01;98183.81;;;-2.76;100.00
3796;BME280;1913;50.660;7.834;2023-03-01T01:54:34;98175.34;;;-2.78;100.00
3796;BME280;1913;50.660;7.834;2023-03-01T01:57:07;98171.47;;;-2.71;100.00
3796;BME280;1913;50.660;7.834;2023-03-01T01:59:36;98169.63;;;-2.69;100.00
3796;BME280;1913;50.660;7.834;2023-03-01T02:02:03;98174.78;;;-2.69;100.00
3796;BME280;1913;50.660;7.834;2023-03-01T02:04:31;98172.94;;;-2.67;100.00
3796;BME280;1913;50.660;7.834;2023-03-01T02:07:09;98167.69;;;-2.66;100.00
3796;BME280;1913;50.660;7.834;2023-03-01T02:09:38;98178.94;;;-2.67;100.00
3796;BME280;1913;50.660;7.834;2023-03-01T02:12:04;98187.16;;;-2.61;100.00
3796;BME280;1913;50.660;7.834;2023-03-01T02:14:30;98182.50;;;-2.69;100.00
3796;BME280;1913;50.660;7.834;2023-03-01T02:16:55;98179.66;;;-2.79;100.00
3796;BME280;1913;50.660;7.834;2023-03-01T02:19:31;98174.97;;;-2.72;100.00
3796;BME280;1913;50.660;7.834;2023-03-01T02:22:23;98174.63;;;-2.80;100.00
3796;BME280;1913;50.660;7.834;2023-03-01T02:25:05;98170.66;;;-2.86;100.00
3796;BME280;1913;50.660;7.834;2023-03-01T02:30:45;98159.59;;;-3.01;100.00
3796;BME280;1913;50.660;7.834;2023-03-01T02:33:33;98164.09;;;-3.04;100.00
3796;BME280;1913;50.660;7.834;2023-03-01T02:36:06;98154.34;;;-3.14;100.00
3796;BME280;1913;50.660;7.834;2023-03-01T02:38:32;98152.25;;;-3.07;100.00
3796;BME280;1913;50.660;7.834;2023-03-01T02:40:58;98150.06;;;-3.13;100.00
3796;BME280;1913;50.660;7.834;2023-03-01T02:43:29;98154.34;;;-3.14;100.00
3796;BME280;1913;50.660;7.834;2023-03-01T02:46:02;98156.38;;;-3.19;100.00
3796;BME280;1913;50.660;7.834;2023-03-01T02:48:40;98157.38;;;-3.21;100.00
3796;BME280;1913;50.660;7.834;2023-03-01T02:54:12;98144.81;;;-3.26;100.00
3796;BME280;1913;50.660;7.834;2023-03-01T02:56:39;98144.19;;;-3.29;100.00
3796;BME280;1913;50.660;7.834;2023-03-01T02:59:06;98150.97;;;-3.28;100.00
3796;BME280;1913;50.660;7.834;2023-03-01T03:01:31;98146.19;;;-3.34;100.00
3796;BME280;1913;50.660;7.834;2023-03-01T03:04:08;98147.84;;;-3.33;100.00
3796;BME280;1913;50.660;7.834;2023-03-01T03:06:35;98141.31;;;-3.39;100.00
3796;BME280;1913;50.660;7.834;2023-03-01T03:09:00;98127.84;;;-3.43;100.00
3796;BME280;1913;50.660;7.834;2023-03-01T03:11:26;98132.25;;;-3.45;100.00
3796;BME280;1913;50.660;7.834;2023-03-01T03:13:52;98125.44;;;-3.46;100.00
3796;BME280;1913;50.660;7.834;2023-03-01T03:16:18;98128.84;;;-3.45;100.00
3796;BME280;1913;50.660;7.834;2023-03-01T03:18:44;98127.94;;;-3.44;100.00
3796;BME280;1913;50.660;7.834;2023-03-01T03:21:11;98112.78;;;-3.49;100.00
3796;BME280;1913;50.660;7.834;2023-03-01T03:23:37;98105.06;;;-3.63;100.00
3796;BME280;1913;50.660;7.834;2023-03-01T03:26:05;98109.94;;;-3.58;100.00
3796;BME280;1913;50.660;7.834;2023-03-01T03:28:34;98111.59;;;-3.57;100.00
3796;BME280;1913;50.660;7.834;2023-03-01T03:31:00;98111.94;;;-3.64;100.00
3796;BME280;1913;50.660;7.834;2023-03-01T03:33:32;98109.22;;;-3.61;100.00
3796;BME280;1913;50.660;7.834;2023-03-01T03:35:57;98100.50;;;-3.58;100.00
3796;BME280;1913;50.660;7.834;2023-03-01T03:38:23;98107.09;;;-3.54;100.00
3796;BME280;1913;50.660;7.834;2023-03-01T03:40:51;98104.72;;;-3.57;100.00
3796;BME280;1913;50.660;7.834;2023-03-01T03:43:22;98114.16;;;-3.57;100.00
3796;BME280;1913;50.660;7.834;2023-03-01T03:45:49;98101.84;;;-3.52;100.00
3796;BME280;1913;50.660;7.834;2023-03-01T03:48:15;98111.13;;;-3.50;100.00
3796;BME280;1913;50.660;7.834;2023-03-01T03:50:41;98097.00;;;-3.57;100.00
3796;BME280;1913;50.660;7.834;2023-03-01T03:53:10;98095.06;;;-3.68;100.00
3796;BME280;1913;50.660;7.834;2023-03-01T03:55:36;98087.81;;;-3.75;100.00
3796;BME280;1913;50.660;7.834;2023-03-01T03:58:08;98084.78;;;-3.82;100.00
3796;BME280;1913;50.660;7.834;2023-03-01T04:00:39;98079.00;;;-3.86;100.00
3796;BME280;1913;50.660;7.834;2023-03-01T04:03:05;98089.09;;;-3.97;100.00
3796;BME280;1913;50.660;7.834;2023-03-01T04:05:31;98094.03;;;-4.08;100.00
3796;BME280;1913;50.660;7.834;2023-03-01T04:07:57;98088.16;;;-4.10;100.00
3796;BME280;1913;50.660;7.834;2023-03-01T04:10:30;98091.34;;;-4.06;100.00
3796;BME280;1913;50.660;7.834;2023-03-01T04:12:57;98093.84;;;-4.05;100.00
3796;BME280;1913;50.660;7.834;2023-03-01T04:15:24;98089.06;;;-4.11;100.00
3796;BME280;1913;50.660;7.834;2023-03-01T04:17:51;98089.53;;;-4.04;100.00
3796;BME280;1913;50.660;7.834;2023-03-01T04:20:24;98086.81;;;-4.01;100.00
3796;BME280;1913;50.660;7.834;2023-03-01T04:28:19;98087.28;;;-3.80;100.00
3796;BME280;1913;50.660;7.834;2023-03-01T04:30:44;98084.25;;;-3.87;100.00
3796;BME280;1913;50.660;7.834;2023-03-01T04:33:10;98079.59;;;-3.80;100.00
3796;BME280;1913;50.660;7.834;2023-03-01T04:35:37;98079.47;;;-3.79;100.00
3796;BME280;1913;50.660;7.834;2023-03-01T04:38:04;98076.00;;;-3.78;100.00
3796;BME280;1913;50.660;7.834;2023-03-01T04:40:30;98077.00;;;-3.80;100.00
3796;BME280;1913;50.660;7.834;2023-03-01T04:42:58;98070.84;;;-3.78;100.00
3796;BME280;1913;50.660;7.834;2023-03-01T04:45:23;98080.31;;;-3.78;100.00
3796;BME280;1913;50.660;7.834;2023-03-01T04:47:49;98082.03;;;-3.79;100.00
3796;BME280;1913;50.660;7.834;2023-03-01T04:50:18;98081.13;;;-3.78;100.00
3796;BME280;1913;50.660;7.834;2023-03-01T04:52:46;98076.91;;;-3.79;100.00
3796;BME280;1913;50.660;7.834;2023-03-01T04:55:12;98073.59;;;-3.81;100.00
3796;BME280;1913;50.660;7.834;2023-03-01T04:57:37;98075.44;;;-3.83;100.00
3796;BME280;1913;50.660;7.834;2023-03-01T05:00:04;98079.94;;;-3.87;100.00
3796;BME280;1913;50.660;7.834;2023-03-01T05:02:48;98069.31;;;-3.80;100.00
3796;BME280;1913;50.660;7.834;2023-03-01T05:05:21;98073.81;;;-3.84;100.00
3796;BME280;1913;50.660;7.834;2023-03-01T05:07:51;98076.16;;;-3.81;100.00
3796;BME280;1913;50.660;7.834;2023-03-01T05:10:16;98075.28;;;-3.80;100.00
3796;BME280;1913;50.660;7.834;2023-03-01T05:12:42;98079.31;;;-3.76;100.00
3796;BME280;1913;50.660;7.834;2023-03-01T05:15:07;98085.63;;;-3.81;100.00
3796;BME280;1913;50.660;7.834;2023-03-01T05:17:33;98088.19;;;-3.81;100.00
3796;BME280;1913;50.660;7.834;2023-03-01T05:19:59;98091.69;;;-3.82;100.00
3796;BME280;1913;50.660;7.834;2023-03-01T05:22:26;98086.00;;;-3.88;100.00
3796;BME280;1913;50.660;7.834;2023-03-01T05:24:51;98088.00;;;-3.93;100.00
3796;BME280;1913;50.660;7.834;2023-03-01T05:27:41;98087.06;;;-3.92;100.00
3796;BME280;1913;50.660;7.834;2023-03-01T05:30:07;98076.91;;;-3.93;100.00
3796;BME280;1913;50.660;7.834;2023-03-01T05:32:44;98075.25;;;-3.94;100.00
3796;BME280;1913;50.660;7.834;2023-03-01T05:35:14;98071.88;;;-3.95;100.00
3796;BME280;1913;50.660;7.834;2023-03-01T05:37:45;98068.09;;;-4.03;100.00
3796;BME280;1913;50.660;7.834;2023-03-01T05:40:13;98060.94;;;-3.98;100.00
3796;BME280;1913;50.660;7.834;2023-03-01T05:42:47;98062.94;;;-4.03;100.00
3796;BME280;1913;50.660;7.834;2023-03-01T05:45:14;98063.13;;;-4.06;100.00
3796;BME280;1913;50.660;7.834;2023-03-01T05:47:40;98064.22;;;-4.11;100.00
3796;BME280;1913;50.660;7.834;2023-03-01T05:50:20;98054.59;;;-4.07;100.00
3796;BME280;1913;50.660;7.834;2023-03-01T05:52:50;98060.47;;;-4.05;100.00
3796;BME280;1913;50.660;7.834;2023-03-01T05:55:18;98049.91;;;-4.15;100.00
3796;BME280;1913;50.660;7.834;2023-03-01T05:57:44;98048.16;;;-4.14;100.00
3796;BME280;1913;50.660;7.834;2023-03-01T06:00:10;98044.22;;;-4.20;100.00
3796;BME280;1913;50.660;7.834;2023-03-01T06:02:38;98043.28;;;-4.33;100.00
3796;BME280;1913;50.660;7.834;2023-03-01T06:05:05;98055.03;;;-4.29;100.00
3796;BME280;1913;50.660;7.834;2023-03-01T06:07:31;98048.78;;;-4.25;100.00
3796;BME280;1913;50.660;7.834;2023-03-01T06:09:57;98058.25;;;-4.25;100.00
3796;BME280;1913;50.660;7.834;2023-03-01T06:12:22;98056.31;;;-4.22;100.00
3796;BME280;1913;50.660;7.834;2023-03-01T06:14:47;98055.88;;;-4.14;100.00
3796;BME280;1913;50.660;7.834;2023-03-01T06:17:13;98059.72;;;-4.07;100.00
3796;BME280;1913;50.660;7.834;2023-03-01T06:19:38;98063.13;;;-4.06;100.00
3796;BME280;1913;50.660;7.834;2023-03-01T06:22:04;98061.31;;;-4.04;100.00
3796;BME280;1913;50.660;7.834;2023-03-01T06:24:29;98060.84;;;-4.11;100.00
3796;BME280;1913;50.660;7.834;2023-03-01T06:26:55;98057.63;;;-4.15;100.00
3796;BME280;1913;50.660;7.834;2023-03-01T06:29:21;98056.53;;;-4.11;100.00
3796;BME280;1913;50.660;7.834;2023-03-01T06:31:47;98058.25;;;-4.11;100.00
3796;BME280;1913;50.660;7.834;2023-03-01T06:34:13;98057.09;;;-4.05;100.00
3796;BME280;1913;50.660;7.834;2023-03-01T06:36:39;98053.50;;;-4.03;100.00
3796;BME280;1913;50.660;7.834;2023-03-01T06:39:05;98047.81;;;-4.08;100.00
3796;BME280;1913;50.660;7.834;2023-03-01T06:41:32;98055.25;;;-4.03;100.00
3796;BME280;1913;50.660;7.834;2023-03-01T06:43:58;98055.34;;;-4.05;100.00
3796;BME280;1913;50.660;7.834;2023-03-01T06:46:24;98057.09;;;-4.05;100.00
3796;BME280;1913;50.660;7.834;2023-03-01T06:48:49;98053.03;;;-4.10;100.00
3796;BME280;1913;50.660;7.834;2023-03-01T06:51:15;98054.53;;;-4.05;100.00
3796;BME280;1913;50.660;7.834;2023-03-01T06:53:40;98053.59;;;-4.04;100.00
3796;BME280;1913;50.660;7.834;2023-03-01T06:56:06;98054.59;;;-3.93;100.00
3796;BME280;1913;50.660;7.834;2023-03-01T06:58:31;98052.88;;;-3.92;100.00
3796;BME280;1913;50.660;7.834;2023-03-01T07:00:57;98052.97;;;-3.94;100.00
3796;BME280;1913;50.660;7.834;2023-03-01T07:03:23;98052.03;;;-3.78;100.00
3796;BME280;1913;50.660;7.834;2023-03-01T07:05:49;98051.75;;;-3.74;100.00
3796;BME280;1913;50.660;7.834;2023-03-01T07:08:18;98052.16;;;-3.66;100.00
3796;BME280;1913;50.660;7.834;2023-03-01T07:10:43;98058.66;;;-3.60;100.00
3796;BME280;1913;50.660;7.834;2023-03-01T07:13:08;98046.81;;;-3.48;100.00
3796;BME280;1913;50.660;7.834;2023-03-01T07:15:34;98056.03;;;-3.31;100.00
3796;BME280;1913;50.660;7.834;2023-03-01T07:17:59;98052.34;;;-3.13;100.00
3796;BME280;1913;50.660;7.834;2023-03-01T07:20:25;98040.16;;;-2.97;100.00
3796;BME280;1913;50.660;7.834;2023-03-01T07:22:52;98043.31;;;-2.79;100.00
3796;BME280;1913;50.660;7.834;2023-03-01T07:25:17;98035.84;;;-2.56;100.00
3796;BME280;1913;50.660;7.834;2023-03-01T07:27:43;98025.41;;;-2.41;100.00
3796;BME280;1913;50.660;7.834;2023-03-01T07:30:09;98031.72;;;-2.19;100.00
3796;BME280;1913;50.660;7.834;2023-03-01T07:32:35;98025.44;;;-2.02;100.00
3796;BME280;1913;50.660;7.834;2023-03-01T07:35:00;98026.44;;;-1.79;100.00
3796;BME280;1913;50.660;7.834;2023-03-01T07:37:26;98016.53;;;-1.60;100.00
3796;BME280;1913;50.660;7.834;2023-03-01T07:39:51;98019.38;;;-1.39;100.00
3796;BME280;1913;50.660;7.834;2023-03-01T07:42:17;98007.88;;;-1.22;100.00
3796;BME280;1913;50.660;7.834;2023-03-01T07:44:42;98005.75;;;-1.04;100.00
3796;BME280;1913;50.660;7.834;2023-03-01T07:47:07;98011.84;;;-0.81;100.00
3796;BME280;1913;50.660;7.834;2023-03-01T07:49:33;98010.84;;;-0.67;100.00
3796;BME280;1913;50.660;7.834;2023-03-01T07:51:59;98011.97;;;-0.36;100.00
3796;BME280;1913;50.660;7.834;2023-03-01T07:54:25;98013.25;;;0.05;100.00
3796;BME280;1913;50.660;7.834;2023-03-01T07:56:51;98021.13;;;0.37;100.00
3796;BME280;1913;50.660;7.834;2023-03-01T07:59:17;98020.88;;;0.62;100.00
3796;BME280;1913;50.660;7.834;2023-03-01T08:01:42;98019.66;;;1.32;100.00
3796;BME280;1913;50.660;7.834;2023-03-01T08:04:08;98024.63;;;1.45;100.00
3796;BME280;1913;50.660;7.834;2023-03-01T08:06:35;98020.50;;;1.54;96.24
3796;BME280;1913;50.660;7.834;2023-03-01T08:09:02;98028.78;;;1.89;91.67
3796;BME280;1913;50.660;7.834;2023-03-01T08:11:27;98024.38;;;2.32;88.07
3796;BME280;1913;50.660;7.834;2023-03-01T08:13:54;98026.31;;;2.39;88.05
3796;BME280;1913;50.660;7.834;2023-03-01T08:16:19;98034.22;;;2.78;78.53
3796;BME280;1913;50.660;7.834;2023-03-01T08:18:45;98024.66;;;2.08;81.30
3796;BME280;1913;50.660;7.834;2023-03-01T08:21:13;98029.56;;;2.32;82.30
3796;BME280;1913;50.660;7.834;2023-03-01T08:23:39;98032.91;;;2.23;81.98
3796;BME280;1913;50.660;7.834;2023-03-01T08:26:09;98025.69;;;2.26;78.47
3796;BME280;1913;50.660;7.834;2023-03-01T08:28:35;98029.66;;;2.61;74.58
3796;BME280;1913;50.660;7.834;2023-03-01T08:31:02;98019.06;;;2.83;73.76
3796;BME280;1913;50.660;7.834;2023-03-01T08:33:28;98027.25;;;2.79;72.80
3796;BME280;1913;50.660;7.834;2023-03-01T08:36:02;98024.31;;;3.12;70.56
3796;BME280;1913;50.660;7.834;2023-03-01T08:38:28;98023.78;;;3.57;68.50
3796;BME280;1913;50.660;7.834;2023-03-01T08:40:53;98018.22;;;4.09;64.11
3796;BME280;1913;50.660;7.834;2023-03-01T08:43:18;98022.22;;;4.41;62.91
3796;BME280;1913;50.660;7.834;2023-03-01T08:45:44;98015.31;;;4.87;59.58
3796;BME280;1913;50.660;7.834;2023-03-01T08:48:09;98019.91;;;5.38;55.63
3796;BME280;1913;50.660;7.834;2023-03-01T08:50:35;98013.88;;;5.20;55.95
3796;BME280;1913;50.660;7.834;2023-03-01T08:53:00;98019.78;;;6.02;54.99
3796;BME280;1913;50.660;7.834;2023-03-01T08:55:26;98017.75;;;6.82;52.06
3796;BME280;1913;50.660;7.834;2023-03-01T08:57:51;98009.66;;;6.59;50.56
3796;BME280;1913;50.660;7.834;2023-03-01T09:00:17;98012.47;;;7.32;49.67
3796;BME280;1913;50.660;7.834;2023-03-01T09:02:42;98015.72;;;8.16;47.36
3796;BME280;1913;50.660;7.834;2023-03-01T09:05:08;98024.25;;;8.10;45.60
3796;BME280;1913;50.660;7.834;2023-03-01T09:07:34;98010.38;;;7.77;46.18
3796;BME280;1913;50.660;7.834;2023-03-01T09:09:59;98010.22;;;7.70;46.45
3796;BME280;1913;50.660;7.834;2023-03-01T09:12:24;98009.38;;;7.53;45.04
3796;BME280;1913;50.660;7.834;2023-03-01T09:14:50;98011.88;;;6.88;46.49
3796;BME280;1913;50.660;7.834;2023-03-01T09:17:15;98009.03;;;6.31;47.07
3796;BME280;1913;50.660;7.834;2023-03-01T09:19:41;98005.59;;;6.64;47.02
3796;BME280;1913;50.660;7.834;2023-03-01T09:22:06;98005.84;;;6.19;47.65
3796;BME280;1913;50.660;7.834;2023-03-01T09:24:32;98004.78;;;6.72;47.71
3796;BME280;1913;50.660;7.834;2023-03-01T09:26:57;98002.91;;;6.90;46.42
3796;BME280;1913;50.660;7.834;2023-03-01T09:29:23;98003.66;;;6.75;46.44
3796;BME280;1913;50.660;7.834;2023-03-01T09:31:49;98013.28;;;6.32;47.34
3796;BME280;1913;50.660;7.834;2023-03-01T09:34:14;98006.38;;;6.57;47.28
3796;BME280;1913;50.660;7.834;2023-03-01T09:36:44;98003.31;;;7.20;46.19
3796;BME280;1913;50.660;7.834;2023-03-01T09:39:09;98003.63;;;7.25;45.12
3796;BME280;1913;50.660;7.834;2023-03-01T09:41:58;98008.06;;;7.33;44.99
3796;BME280;1913;50.660;7.834;2023-03-01T09:44:47;98000.56;;;7.38;44.21
3796;BME280;1913;50.660;7.834;2023-03-01T09:47:19;97996.34;;;6.86;44.62
3796;BME280;1913;50.660;7.834;2023-03-01T09:49:57;97996.28;;;7.12;45.53
3796;BME280;1913;50.660;7.834;2023-03-01T09:52:33;97992.75;;;6.37;45.57
3796;BME280;1913;50.660;7.834;2023-03-01T09:55:08;97989.47;;;6.77;45.01
3796;BME280;1913;50.660;7.834;2023-03-01T10:00:47;97993.97;;;7.09;45.44
3796;BME280;1913;50.660;7.834;2023-03-01T10:03:24;98006.78;;;7.45;44.06
3796;BME280;1913;50.660;7.834;2023-03-01T10:06:19;97982.75;;;7.33;43.09
3796;BME280;1913;50.660;7.834;2023-03-01T10:08:58;97980.59;;;7.53;43.96
3796;BME280;1913;50.660;7.834;2023-03-01T10:11:29;97983.22;;;7.53;43.46
3796;BME280;1913;50.660;7.834;2023-03-01T10:14:13;97989.25;;;7.29;42.33
3796;BME280;1913;50.660;7.834;2023-03-01T10:19:25;97972.44;;;7.73;43.45
3796;BME280;1913;50.660;7.834;2023-03-01T10:21:57;97979.38;;;8.21;41.68
3796;BME280;1913;50.660;7.834;2023-03-01T10:24:32;97957.03;;;7.86;42.17
3796;BME280;1913;50.660;7.834;2023-03-01T10:27:19;97959.00;;;8.56;41.05
3796;BME280;1913;50.660;7.834;2023-03-01T10:32:21;97945.03;;;8.63;39.36
3796;BME280;1913;50.660;7.834;2023-03-01T10:34:47;97935.88;;;9.74;37.99
3796;BME280;1913;50.660;7.834;2023-03-01T10:37:18;97934.22;;;9.44;37.01
3796;BME280;1913;50.660;7.834;2023-03-01T10:39:56;97933.78;;;9.55;37.46
3796;BME280;1913;50.660;7.834;2023-03-01T10:42:27;97932.63;;;9.57;37.79
3796;BME280;1913;50.660;7.834;2023-03-01T10:44:53;97941.16;;;9.37;37.40
3796;BME280;1913;50.660;7.834;2023-03-01T10:47:24;97947.06;;;9.91;36.48
3796;BME280;1913;50.660;7.834;2023-03-01T10:49:59;97944.88;;;9.95;36.13
3796;BME280;1913;50.660;7.834;2023-03-01T10:52:35;97937.91;;;10.17;36.40
3796;BME280;1913;50.660;7.834;2023-03-01T10:55:24;97928.22;;;10.02;36.27
3796;BME280;1913;50.660;7.834;2023-03-01T10:58:27;97926.59;;;11.18;35.68
3796;BME280;1913;50.660;7.834;2023-03-01T11:00:57;97943.00;;;11.91;34.88
3796;BME280;1913;50.660;7.834;2023-03-01T11:03:37;97936.75;;;10.64;34.32
3796;BME280;1913;50.660;7.834;2023-03-01T11:11:33;97911.59;;;10.40;32.95
3796;BME280;1913;50.660;7.834;2023-03-01T11:14:20;97909.22;;;10.81;33.92
3796;BME280;1913;50.660;7.834;2023-03-01T11:17:02;97903.44;;;10.49;31.73
3796;BME280;1913;50.660;7.834;2023-03-01T11:19:28;97901.09;;;11.19;32.63
3796;BME280;1913;50.660;7.834;2023-03-01T11:24:31;97904.84;;;10.88;32.65
3796;BME280;1913;50.660;7.834;2023-03-01T11:27:02;97898.09;;;10.43;32.80
3796;BME280;1913;50.660;7.834;2023-03-01T11:32:03;97890.66;;;10.17;33.20
3796;BME280;1913;50.660;7.834;2023-03-01T11:38:24;97885.06;;;11.91;33.22
3796;BME280;1913;50.660;7.834;2023-03-01T11:41:08;97873.84;;;12.65;32.56
3796;BME280;1913;50.660;7.834;2023-03-01T12:01:12;97858.53;;;13.75;28.42
3796;BME280;1913;50.660;7.834;2023-03-01T12:12:26;97849.13;;;12.66;29.49
3796;BME280;1913;50.660;7.834;2023-03-01T12:20:39;97847.16;;;13.48;29.17
3796;BME280;1913;50.660;7.834;2023-03-01T12:26:32;97845.31;;;13.22;29.54
3796;BME280;1913;50.660;7.834;2023-03-01T12:50:57;97806.94;;;12.73;27.50
3796;BME280;1913;50.660;7.834;2023-03-01T12:53:28;97809.53;;;12.53;28.48
3796;BME280;1913;50.660;7.834;2023-03-01T12:56:06;97799.00;;;12.73;29.23
3796;BME280;1913;50.660;7.834;2023-03-01T12:59:01;97799.69;;;13.28;28.68
3796;BME280;1913;50.660;7.834;2023-03-01T13:04:16;97803.47;;;12.59;28.26
3796;BME280;1913;50.660;7.834;2023-03-01T13:11:59;97802.88;;;11.96;28.61
3796;BME280;1913;50.660;7.834;2023-03-01T13:16:51;97793.75;;;11.64;29.92
3796;BME280;1913;50.660;7.834;2023-03-01T13:19:25;97786.16;;;11.47;30.21
3796;BME280;1913;50.660;7.834;2023-03-01T13:21:53;97780.44;;;11.72;28.60
3796;BME280;1913;50.660;7.834;2023-03-01T13:24:39;97776.22;;;11.43;28.19
3796;BME280;1913;50.660;7.834;2023-03-01T13:29:57;97769.47;;;11.68;29.00
3796;BME280;1913;50.660;7.834;2023-03-01T13:34:56;97754.81;;;12.68;27.07
3796;BME280;1913;50.660;7.834;2023-03-01T13:37:28;97757.44;;;12.68;27.73
3796;BME280;1913;50.660;7.834;2023-03-01T13:40:00;97754.78;;;13.02;27.11
3796;BME280;1913;50.660;7.834;2023-03-01T13:44:58;97755.97;;;12.39;26.43
3796;BME280;1913;50.660;7.834;2023-03-01T13:47:26;97758.38;;;12.34;26.27
3796;BME280;1913;50.660;7.834;2023-03-01T13:50:01;97761.28;;;12.59;26.72
3796;BME280;1913;50.660;7.834;2023-03-01T13:52:40;97751.38;;;12.88;26.10
3796;BME280;1913;50.660;7.834;2023-03-01T13:55:20;97753.59;;;13.31;26.36
3796;BME280;1913;50.660;7.834;2023-03-01T13:57:49;97765.44;;;13.80;26.57
3796;BME280;1913;50.660;7.834;2023-03-01T14:03:10;97759.63;;;13.45;27.29
3796;BME280;1913;50.660;7.834;2023-03-01T14:05:37;97760.47;;;14.03;26.85
3796;BME280;1913;50.660;7.834;2023-03-01T14:08:04;97755.22;;;13.97;26.73
3796;BME280;1913;50.660;7.834;2023-03-01T14:10:52;97756.38;;;13.56;26.97
3796;BME280;1913;50.660;7.834;2023-03-01T14:13:30;97753.25;;;13.79;27.33
3796;BME280;1913;50.660;7.834;2023-03-01T14:16:24;97750.28;;;13.55;27.06
3796;BME280;1913;50.660;7.834;2023-03-01T14:21:24;97750.75;;;12.79;26.58
3796;BME280;1913;50.660;7.834;2023-03-01T14:23:52;97756.00;;;12.66;27.58
3796;BME280;1913;50.660;7.834;2023-03-01T14:26:22;97752.84;;;12.03;28.24
3796;BME280;1913;50.660;7.834;2023-03-01T14:28:49;97754.94;;;12.34;28.14
3796;BME280;1913;50.660;7.834;2023-03-01T14:31:35;97754.72;;;11.74;28.29
3796;BME280;1913;50.660;7.834;2023-03-01T14:34:01;97751.00;;;11.62;28.07
3796;BME280;1913;50.660;7.834;2023-03-01T14:36:29;97747.84;;;11.80;28.90
3796;BME280;1913;50.660;7.834;2023-03-01T14:38:55;97743.13;;;12.16;28.70
3796;BME280;1913;50.660;7.834;2023-03-01T14:41:24;97746.66;;;12.43;27.65
3796;BME280;1913;50.660;7.834;2023-03-01T14:43:55;97735.50;;;12.28;27.57
3796;BME280;1913;50.660;7.834;2023-03-01T14:46:25;97742.00;;;12.45;28.00
3796;BME280;1913;50.660;7.834;2023-03-01T14:48:57;97733.56;;;12.02;27.80
3796;BME280;1913;50.660;7.834;2023-03-01T14:51:24;97732.97;;;12.00;28.99
3796;BME280;1913;50.660;7.834;2023-03-01T14:53:50;97729.97;;;11.68;28.17
3796;BME280;1913;50.660;7.834;2023-03-01T14:56:16;97723.41;;;11.51;28.41
3796;BME280;1913;50.660;7.834;2023-03-01T14:58:46;97728.13;;;11.62;29.03
3796;BME280;1913;50.660;7.834;2023-03-01T15:01:16;97730.84;;;11.06;29.38
3796;BME280;1913;50.660;7.834;2023-03-01T15:03:45;97724.59;;;10.79;30.18
3796;BME280;1913;50.660;7.834;2023-03-01T15:06:15;97721.38;;;10.84;31.09
3796;BME280;1913;50.660;7.834;2023-03-01T15:08:52;97711.53;;;10.43;30.88
3796;BME280;1913;50.660;7.834;2023-03-01T15:11:29;97713.97;;;10.44;31.64
3796;BME280;1913;50.660;7.834;2023-03-01T15:13:55;97713.00;;;10.09;31.58
3796;BME280;1913;50.660;7.834;2023-03-01T15:16:26;97714.19;;;9.55;32.94
3796;BME280;1913;50.660;7.834;2023-03-01T15:18:57;97713.78;;;9.22;33.36
3796;BME280;1913;50.660;7.834;2023-03-01T15:21:32;97701.34;;;9.46;32.39
3796;BME280;1913;50.660;7.834;2023-03-01T15:26:38;97697.97;;;8.63;33.27
3796;BME280;1913;50.660;7.834;2023-03-01T15:29:15;97700.34;;;8.27;33.82